Pagina principale
METAR-TAF:

METAR-TAF

Aeroporti :

Grenchen, Svizzera

latitudine: 47-10-53N, longitudine: 007-24-59E, altezza: 430 m

Osservazione

Il bollettino è stato emesso 40 minuti fa, alle 15:50 UTC
Vento 3 kt da ovest/nord-ovest, variando fra ovest/sud-ovest e nord-ovest
Temperature 4°C
Umidità 65%
Pressione 1027 hPa
Visibilità 10 km o più
Nuvoloso ad un'altezza di 3000 ft

METAR: LSZG 201550Z 29003KT 250V320 9999 BKN030 04/M02 Q1027 NOSIG

Ora: 17:30 (16:30 UTC)

Previsione

Il bollettino è stato emesso 2 ore e 5 minuti fa, alle 14:25 UTC
Previsione valida dal 20 alle 15 UTC al 20 alle 24 UTC
Vento 3 kt da est/nord-est
Visibilità 10 km o più
Poco nuvoloso ad un'altezza di 3600 ft
Nuvoloso ad un'altezza di 5500 ft
Probabilità 40% :
Temporaneamente
dal 20 alle 16 UTC al 20 alle 21 UTC
Visibilità: 4000 m
Nuvoloso ad un'altezza di 1400 ft
rovesci di neve, pioggia

TAF: LSZG 201425Z 2015/2024 07003KT 9999 FEW036 BKN055 PROB40 TEMPO 2016/2021 4000 SHSNRA BKN014

Osservazioni e previsioni meteorologiche di più di 4000 aeroporti (messaggi METAR e TAF).

Le stazioni disponibili sono rappresentate dai dischi gialli e rossi sulla carta.

Puntare il mouse per vedere il nome della stazione.

Clicca sopra per visualizzare le osservazioni e previsioni meteorologiche.

Per cambiare la mappa : fare clic sui pulsanti verdi con una croce nera per ingrandire, il pulsante verde con un trattino per diminuire, o sulla freccia verde per le mappe adiacenti.


METAR-TAF: